<?xml version="1.0" encoding="UTF-8" standalone="no" ?>
<gpx xmlns="http://www.topografix.com/GPX/1/1" xmlns:xsi="http://www.w3.org/2001/XMLSchema-instance" xsi:schemaLocation="http://www.topografix.com/GPX/1/1 http://www.topografix.com/GPX/1/1/gpx.xsd" version="1.1" creator="VisuGPX - https://www.visugpx.com">
  <metadata>
    <name>06 - Lesperon - Taller</name>
    <desc><![CDATA[Voie de Tours  - Lesperon - Taller]]></desc>
  </metadata>
  <trk>
    <name><![CDATA[06 - Lesperon - Taller]]></name>
    <trkseg>
      <trkpt lat="43.96954" lon="-1.09377">
        <ele>72</ele>
        <time>2019-01-06T15:21:13Z</time>
      </trkpt>
      <trkpt lat="43.9688" lon="-1.09462">
        <ele>65</ele>
        <time>2019-01-06T15:22:13Z</time>
      </trkpt>
      <trkpt lat="43.96753" lon="-1.09496">
        <ele>62</ele>
        <time>2019-01-06T15:23:13Z</time>
      </trkpt>
      <trkpt lat="43.96634" lon="-1.09598">
        <ele>71</ele>
        <time>2019-01-06T15:24:13Z</time>
      </trkpt>
      <trkpt lat="43.9659" lon="-1.09626">
        <ele>75</ele>
        <time>2019-01-06T15:25:13Z</time>
      </trkpt>
      <trkpt lat="43.9655" lon="-1.09625">
        <ele>75</ele>
        <time>2019-01-06T15:26:13Z</time>
      </trkpt>
      <trkpt lat="43.96455" lon="-1.09585">
        <ele>79</ele>
        <time>2019-01-06T15:27:13Z</time>
      </trkpt>
      <trkpt lat="43.9635" lon="-1.09552">
        <ele>81</ele>
        <time>2019-01-06T15:28:13Z</time>
      </trkpt>
      <trkpt lat="43.96167" lon="-1.09516">
        <ele>81</ele>
        <time>2019-01-06T15:29:13Z</time>
      </trkpt>
      <trkpt lat="43.96106" lon="-1.09479">
        <ele>82</ele>
        <time>2019-01-06T15:30:13Z</time>
      </trkpt>
      <trkpt lat="43.95955" lon="-1.09276">
        <ele>78</ele>
        <time>2019-01-06T15:31:13Z</time>
      </trkpt>
      <trkpt lat="43.95099" lon="-1.08759">
        <ele>87</ele>
        <time>2019-01-06T15:32:13Z</time>
      </trkpt>
      <trkpt lat="43.94477" lon="-1.08425">
        <ele>83</ele>
        <time>2019-01-06T15:33:13Z</time>
      </trkpt>
      <trkpt lat="43.94422" lon="-1.08389">
        <ele>80</ele>
        <time>2019-01-06T15:34:13Z</time>
      </trkpt>
      <trkpt lat="43.94369" lon="-1.08334">
        <ele>80</ele>
        <time>2019-01-06T15:35:13Z</time>
      </trkpt>
      <trkpt lat="43.94295" lon="-1.08234">
        <ele>81</ele>
        <time>2019-01-06T15:36:13Z</time>
      </trkpt>
      <trkpt lat="43.94239" lon="-1.08201">
        <ele>82</ele>
        <time>2019-01-06T15:37:13Z</time>
      </trkpt>
      <trkpt lat="43.94205" lon="-1.08198">
        <ele>82</ele>
        <time>2019-01-06T15:38:13Z</time>
      </trkpt>
      <trkpt lat="43.94162" lon="-1.08227">
        <ele>83</ele>
        <time>2019-01-06T15:39:13Z</time>
      </trkpt>
      <trkpt lat="43.94117" lon="-1.08283">
        <ele>84</ele>
        <time>2019-01-06T15:40:13Z</time>
      </trkpt>
      <trkpt lat="43.94076" lon="-1.08302">
        <ele>85</ele>
        <time>2019-01-06T15:41:13Z</time>
      </trkpt>
      <trkpt lat="43.94001" lon="-1.08294">
        <ele>84</ele>
        <time>2019-01-06T15:42:13Z</time>
      </trkpt>
      <trkpt lat="43.93514" lon="-1.07989">
        <ele>84</ele>
        <time>2019-01-06T15:43:13Z</time>
      </trkpt>
      <trkpt lat="43.93453" lon="-1.07944">
        <ele>84</ele>
        <time>2019-01-06T15:44:13Z</time>
      </trkpt>
      <trkpt lat="43.93401" lon="-1.0792">
        <ele>85</ele>
        <time>2019-01-06T15:45:13Z</time>
      </trkpt>
      <trkpt lat="43.93352" lon="-1.07925">
        <ele>86</ele>
        <time>2019-01-06T15:46:13Z</time>
      </trkpt>
      <trkpt lat="43.93219" lon="-1.07967">
        <ele>83</ele>
        <time>2019-01-06T15:47:13Z</time>
      </trkpt>
      <trkpt lat="43.93088" lon="-1.08017">
        <ele>84</ele>
        <time>2019-01-06T15:48:13Z</time>
      </trkpt>
      <trkpt lat="43.9306" lon="-1.08014">
        <ele>83</ele>
        <time>2019-01-06T15:49:13Z</time>
      </trkpt>
      <trkpt lat="43.93025" lon="-1.08003">
        <ele>81</ele>
        <time>2019-01-06T15:50:13Z</time>
      </trkpt>
      <trkpt lat="43.92819" lon="-1.07888">
        <ele>78</ele>
        <time>2019-01-06T15:51:13Z</time>
      </trkpt>
      <trkpt lat="43.92741" lon="-1.07845">
        <ele>79</ele>
        <time>2019-01-06T15:52:13Z</time>
      </trkpt>
      <trkpt lat="43.9244" lon="-1.07764">
        <ele>80</ele>
        <time>2019-01-06T15:53:13Z</time>
      </trkpt>
      <trkpt lat="43.92146" lon="-1.07762">
        <ele>81</ele>
        <time>2019-01-06T15:54:13Z</time>
      </trkpt>
      <trkpt lat="43.92115" lon="-1.07756">
        <ele>80</ele>
        <time>2019-01-06T15:55:13Z</time>
      </trkpt>
      <trkpt lat="43.91607" lon="-1.07626">
        <ele>82</ele>
        <time>2019-01-06T15:56:13Z</time>
      </trkpt>
      <trkpt lat="43.91358" lon="-1.07559">
        <ele>79</ele>
        <time>2019-01-06T15:57:13Z</time>
      </trkpt>
      <trkpt lat="43.91272" lon="-1.07477">
        <ele>84</ele>
        <time>2019-01-06T15:58:13Z</time>
      </trkpt>
      <trkpt lat="43.90743" lon="-1.07275">
        <ele>81</ele>
        <time>2019-01-06T15:59:13Z</time>
      </trkpt>
      <trkpt lat="43.90774" lon="-1.07112">
        <ele>81</ele>
        <time>2019-01-06T16:00:13Z</time>
      </trkpt>
      <trkpt lat="43.90715" lon="-1.06932">
        <ele>81</ele>
        <time>2019-01-06T16:01:13Z</time>
      </trkpt>
      <trkpt lat="43.90557" lon="-1.0673">
        <ele>83</ele>
        <time>2019-01-06T16:02:13Z</time>
      </trkpt>
      <trkpt lat="43.90421" lon="-1.06602">
        <ele>80</ele>
        <time>2019-01-06T16:03:13Z</time>
      </trkpt>
      <trkpt lat="43.90335" lon="-1.06482">
        <ele>81</ele>
        <time>2019-01-06T16:04:13Z</time>
      </trkpt>
      <trkpt lat="43.90295" lon="-1.06486">
        <ele>81</ele>
        <time>2019-01-06T16:05:13Z</time>
      </trkpt>
      <trkpt lat="43.90316" lon="-1.06005">
        <ele>81</ele>
        <time>2019-01-06T16:06:13Z</time>
      </trkpt>
      <trkpt lat="43.90156" lon="-1.05949">
        <ele>83</ele>
        <time>2019-01-06T16:07:13Z</time>
      </trkpt>
      <trkpt lat="43.89849" lon="-1.05988">
        <ele>87</ele>
        <time>2019-01-06T16:08:13Z</time>
      </trkpt>
      <trkpt lat="43.89351" lon="-1.06147">
        <ele>87</ele>
        <time>2019-01-06T16:09:13Z</time>
      </trkpt>
      <trkpt lat="43.88829" lon="-1.0631">
        <ele>80</ele>
        <time>2019-01-06T16:10:13Z</time>
      </trkpt>
      <trkpt lat="43.8855" lon="-1.06567">
        <ele>91</ele>
        <time>2019-01-06T16:11:13Z</time>
      </trkpt>
      <trkpt lat="43.88077" lon="-1.06786">
        <ele>86</ele>
        <time>2019-01-06T16:12:13Z</time>
      </trkpt>
      <trkpt lat="43.87842" lon="-1.06778">
        <ele>84</ele>
        <time>2019-01-06T16:13:13Z</time>
      </trkpt>
      <trkpt lat="43.87291" lon="-1.07018">
        <ele>83</ele>
        <time>2019-01-06T16:14:13Z</time>
      </trkpt>
      <trkpt lat="43.87276" lon="-1.07054">
        <ele>83</ele>
        <time>2019-01-06T16:15:13Z</time>
      </trkpt>
      <trkpt lat="43.87279" lon="-1.07084">
        <ele>79</ele>
        <time>2019-01-06T16:16:13Z</time>
      </trkpt>
      <trkpt lat="43.87275" lon="-1.07125">
        <ele>81.9</ele>
      </trkpt>
      <trkpt lat="43.87275" lon="-1.07157">
        <ele>81.3</ele>
      </trkpt>
      <trkpt lat="43.87274" lon="-1.07178">
        <ele>81</ele>
      </trkpt>
      <trkpt lat="43.87271" lon="-1.072">
        <ele>81</ele>
      </trkpt>
    </trkseg>
  </trk>
</gpx>